This is the latest recevied weather packets stored in our database for station/object EA2KR-10. If no packets are shown the sender has not sent any weather packets the latest 10 day(s).
| Time | Temp. | Humidity | Pressure | Rain* | Wind** | Luminosity | Snow |
|---|---|---|---|---|---|---|---|
| 1787441596 | 28.33° C | 37% | 1028.5 hPa | - | - | - | - |
| 1787439796 | 28.89° C | 36% | 1028.6 hPa | - | - | - | - |
| 1787437996 | 29.44° C | 36% | 1028.5 hPa | - | - | - | - |
| 1787436196 | 30° C | 35% | 1028.6 hPa | - | - | - | - |
| 1787434396 | 30.56° C | 35% | 1028.4 hPa | - | - | - | - |
| 1787432596 | 31.67° C | 34% | 1028.2 hPa | - | - | - | - |
| 1787430796 | 32.22° C | 33% | 1028.3 hPa | - | - | - | - |
| 1787428995 | 33.33° C | 32% | 1027.9 hPa | - | - | - | - |
| 1787427195 | 34.44° C | 31% | 1027.7 hPa | - | - | - | - |
| 1787425394 | 35.56° C | 30% | 1027.4 hPa | - | - | - | - |
| 1787423620 | 36.11° C | 29% | 1027.2 hPa | - | - | - | - |
| 1787421819 | 37.22° C | 29% | 1027.2 hPa | - | - | - | - |
| 1787420019 | 38.33° C | 28% | 1027.2 hPa | - | - | - | - |
| 1787418219 | 39.44° C | 27% | 1027.3 hPa | - | - | - | - |
| 1787416419 | 40° C | 27% | 1027.1 hPa | - | - | - | - |
| 1787414619 | 41.11° C | 26% | 1027.1 hPa | - | - | - | - |
| 1787412819 | 41.67° C | 27% | 1027.2 hPa | - | - | - | - |
| 1787411019 | 41.67° C | 27% | 1027.2 hPa | - | - | - | - |
| 1787409219 | 40.56° C | 28% | 1027.4 hPa | - | - | - | - |
| 1787407419 | 38.89° C | 30% | 1027.8 hPa | - | - | - | - |
| 1787405619 | 37.78° C | 31% | 1028 hPa | - | - | - | - |
| 1787403818 | 36.11° C | 34% | 1028 hPa | - | - | - | - |
| 1787402018 | 34.44° C | 36% | 1028.3 hPa | - | - | - | - |
| 1787400215 | 33.33° C | 37% | 1028.6 hPa | - | - | - | - |
| 1787398415 | 32.22° C | 38% | 1028.9 hPa | - | - | - | - |
* Rain since midnight (hover to see other rain measurements)
** Current wind speed in m/s (hover to see current wind gust speed)